sensor_id;sensor_type;location;lat;lon;timestamp;pressure;altitude;pressure_sealevel;temperature;humidity
59289;BME280;45056;47.602;9.886;2023-05-08T00:01:09;93247.47;;;15.05;66.79
59289;BME280;45056;47.602;9.886;2023-05-08T00:03:38;93256.19;;;15.03;67.04
59289;BME280;45056;47.602;9.886;2023-05-08T00:06:06;93253.88;;;15.02;66.81
59289;BME280;45056;47.602;9.886;2023-05-08T00:08:34;93244.63;;;14.99;66.79
59289;BME280;45056;47.602;9.886;2023-05-08T00:11:02;93239.16;;;14.99;66.85
59289;BME280;45056;47.602;9.886;2023-05-08T00:13:30;93241.13;;;14.98;66.63
59289;BME280;45056;47.602;9.886;2023-05-08T00:16:00;93242.34;;;14.97;66.62
59289;BME280;45056;47.602;9.886;2023-05-08T00:18:28;93238.38;;;14.98;66.69
59289;BME280;45056;47.602;9.886;2023-05-08T00:20:56;93238.66;;;15.00;66.58
59289;BME280;45056;47.602;9.886;2023-05-08T00:23:24;93240.66;;;15.00;66.46
59289;BME280;45056;47.602;9.886;2023-05-08T00:25:52;93232.44;;;15.00;66.30
59289;BME280;45056;47.602;9.886;2023-05-08T00:28:20;93235.19;;;15.00;66.38
59289;BME280;45056;47.602;9.886;2023-05-08T00:30:48;93236.41;;;14.99;66.29
59289;BME280;45056;47.602;9.886;2023-05-08T00:33:17;93238.09;;;14.96;66.16
59289;BME280;45056;47.602;9.886;2023-05-08T00:35:46;93230.31;;;14.95;66.22
59289;BME280;45056;47.602;9.886;2023-05-08T00:38:14;93233.81;;;14.95;66.04
59289;BME280;45056;47.602;9.886;2023-05-08T00:40:42;93235.78;;;14.95;66.21
59289;BME280;45056;47.602;9.886;2023-05-08T00:43:10;93235.50;;;14.93;66.13
59289;BME280;45056;47.602;9.886;2023-05-08T00:45:38;93232.47;;;14.91;66.25
59289;BME280;45056;47.602;9.886;2023-05-08T00:48:07;93239.47;;;14.92;66.12
59289;BME280;45056;47.602;9.886;2023-05-08T00:50:36;93239.47;;;14.92;66.16
59289;BME280;45056;47.602;9.886;2023-05-08T00:53:04;93228.22;;;14.90;66.35
59289;BME280;45056;47.602;9.886;2023-05-08T00:55:32;93239.34;;;14.86;66.38
59289;BME280;45056;47.602;9.886;2023-05-08T00:58:01;93240.09;;;14.86;66.44
59289;BME280;45056;47.602;9.886;2023-05-08T01:00:31;93233.88;;;14.86;66.55
59289;BME280;45056;47.602;9.886;2023-05-08T01:03:00;93240.88;;;14.87;66.33
59289;BME280;45056;47.602;9.886;2023-05-08T01:05:28;93241.31;;;14.85;66.21
59289;BME280;45056;47.602;9.886;2023-05-08T01:07:58;93232.81;;;14.83;66.37
59289;BME280;45056;47.602;9.886;2023-05-08T01:10:37;93241.66;;;14.78;66.22
59289;BME280;45056;47.602;9.886;2023-05-08T01:13:21;93238.63;;;14.76;66.67
59289;BME280;45056;47.602;9.886;2023-05-08T01:16:11;93244.53;;;14.75;66.64
59289;BME280;45056;47.602;9.886;2023-05-08T01:18:49;93237.69;;;14.70;66.68
59289;BME280;45056;47.602;9.886;2023-05-08T01:21:36;93237.41;;;14.68;66.80
59289;BME280;45056;47.602;9.886;2023-05-08T01:24:35;93243.78;;;14.65;67.07
59289;BME280;45056;47.602;9.886;2023-05-08T01:27:52;93235.88;;;14.67;66.89
59289;BME280;45056;47.602;9.886;2023-05-08T01:30:58;93236.31;;;14.65;66.74
59289;BME280;45056;47.602;9.886;2023-05-08T01:33:41;93238.28;;;14.65;66.64
59289;BME280;45056;47.602;9.886;2023-05-08T01:36:22;93238.28;;;14.65;66.59
59289;BME280;45056;47.602;9.886;2023-05-08T01:39:04;93236.78;;;14.64;66.49
59289;BME280;45056;47.602;9.886;2023-05-08T01:41:49;93243.19;;;14.61;66.81
59289;BME280;45056;47.602;9.886;2023-05-08T01:44:32;93245.91;;;14.61;66.87
59289;BME280;45056;47.602;9.886;2023-05-08T01:47:06;93246.09;;;14.57;66.94
59289;BME280;45056;47.602;9.886;2023-05-08T01:49:40;93247.75;;;14.54;67.16
59289;BME280;45056;47.602;9.886;2023-05-08T01:52:17;93247.47;;;14.52;67.31
59289;BME280;45056;47.602;9.886;2023-05-08T01:54:56;93243.22;;;14.51;67.32
59289;BME280;45056;47.602;9.886;2023-05-08T01:57:28;93249.91;;;14.50;67.46
59289;BME280;45056;47.602;9.886;2023-05-08T02:00:00;93246.88;;;14.48;67.40
59289;BME280;45056;47.602;9.886;2023-05-08T02:02:33;93244.56;;;14.47;67.50
59289;BME280;45056;47.602;9.886;2023-05-08T02:05:07;93246.88;;;14.48;67.45
59289;BME280;45056;47.602;9.886;2023-05-08T02:07:40;93246.72;;;14.52;67.71
59289;BME280;45056;47.602;9.886;2023-05-08T02:10:12;93245.94;;;14.51;67.63
59289;BME280;45056;47.602;9.886;2023-05-08T02:12:44;93256.91;;;14.51;67.43
59289;BME280;45056;47.602;9.886;2023-05-08T02:15:16;93251.13;;;14.49;67.77
59289;BME280;45056;47.602;9.886;2023-05-08T02:17:48;93248.53;;;14.46;68.12
59289;BME280;45056;47.602;9.886;2023-05-08T02:20:20;93251.75;;;14.44;68.27
59289;BME280;45056;47.602;9.886;2023-05-08T02:22:50;93247.50;;;14.43;68.53
59289;BME280;45056;47.602;9.886;2023-05-08T02:25:19;93250.97;;;14.43;68.34
59289;BME280;45056;47.602;9.886;2023-05-08T02:27:50;93244.75;;;14.43;68.39
59289;BME280;45056;47.602;9.886;2023-05-08T02:30:24;93258.72;;;14.45;68.32
59289;BME280;45056;47.602;9.886;2023-05-08T02:32:55;93245.03;;;14.45;68.26
59289;BME280;45056;47.602;9.886;2023-05-08T02:35:29;93247.78;;;14.45;68.33
59289;BME280;45056;47.602;9.886;2023-05-08T02:38:01;93252.50;;;14.45;68.51
59289;BME280;45056;47.602;9.886;2023-05-08T02:40:39;93251.44;;;14.42;68.65
59289;BME280;45056;47.602;9.886;2023-05-08T02:43:11;93249.16;;;14.40;68.57
59289;BME280;45056;47.602;9.886;2023-05-08T02:45:44;93248.09;;;14.38;68.78
59289;BME280;45056;47.602;9.886;2023-05-08T02:48:23;93252.06;;;14.37;68.71
59289;BME280;45056;47.602;9.886;2023-05-08T02:51:11;93250.53;;;14.36;68.77
59289;BME280;45056;47.602;9.886;2023-05-08T02:53:50;93253.59;;;14.38;68.69
59289;BME280;45056;47.602;9.886;2023-05-08T02:56:31;93250.66;;;14.41;68.59
59289;BME280;45056;47.602;9.886;2023-05-08T02:59:16;93251.88;;;14.40;68.32
59289;BME280;45056;47.602;9.886;2023-05-08T03:01:55;93252.66;;;14.41;68.60
59289;BME280;45056;47.602;9.886;2023-05-08T03:04:39;93245.97;;;14.42;68.73
59289;BME280;45056;47.602;9.886;2023-05-08T03:07:13;93249.44;;;14.42;68.71
59289;BME280;45056;47.602;9.886;2023-05-08T03:09:47;93247.94;;;14.41;68.47
59289;BME280;45056;47.602;9.886;2023-05-08T03:12:33;93251.88;;;14.40;68.47
59289;BME280;45056;47.602;9.886;2023-05-08T03:15:12;93248.72;;;14.42;68.32
59289;BME280;45056;47.602;9.886;2023-05-08T03:17:47;93251.88;;;14.40;68.42
59289;BME280;45056;47.602;9.886;2023-05-08T03:20:21;93245.06;;;14.36;68.65
59289;BME280;45056;47.602;9.886;2023-05-08T03:22:54;93245.97;;;14.33;68.42
59289;BME280;45056;47.602;9.886;2023-05-08T03:25:25;93245.66;;;14.31;68.33
59289;BME280;45056;47.602;9.886;2023-05-08T03:27:56;93242.63;;;14.28;68.37
59289;BME280;45056;47.602;9.886;2023-05-08T03:30:27;93242.31;;;14.26;68.42
59289;BME280;45056;47.602;9.886;2023-05-08T03:32:57;93240.06;;;14.25;68.38
59289;BME280;45056;47.602;9.886;2023-05-08T03:35:29;93241.28;;;14.24;68.38
59289;BME280;45056;47.602;9.886;2023-05-08T03:37:59;93242.03;;;14.24;68.57
59289;BME280;45056;47.602;9.886;2023-05-08T03:40:28;93243.25;;;14.23;68.69
59289;BME280;45056;47.602;9.886;2023-05-08T03:42:57;93242.19;;;14.21;68.61
59289;BME280;45056;47.602;9.886;2023-05-08T03:45:28;93243.09;;;14.18;69.01
59289;BME280;45056;47.602;9.886;2023-05-08T03:47:58;93249.03;;;14.16;69.04
59289;BME280;45056;47.602;9.886;2023-05-08T03:50:28;93243.56;;;14.16;69.09
59289;BME280;45056;47.602;9.886;2023-05-08T03:52:59;93233.84;;;14.15;69.23
59289;BME280;45056;47.602;9.886;2023-05-08T03:55:28;93254.50;;;14.16;69.05
59289;BME280;45056;47.602;9.886;2023-05-08T03:58:00;93255.72;;;14.15;69.28
59289;BME280;45056;47.602;9.886;2023-05-08T04:00:43;93249.66;;;14.11;69.29
59289;BME280;45056;47.602;9.886;2023-05-08T04:03:31;93258.31;;;14.09;69.22
59289;BME280;45056;47.602;9.886;2023-05-08T04:06:15;93261.50;;;14.08;69.17
59289;BME280;45056;47.602;9.886;2023-05-08T04:09:04;93262.72;;;14.07;69.34
59289;BME280;45056;47.602;9.886;2023-05-08T04:11:52;93264.69;;;14.06;69.36
59289;BME280;45056;47.602;9.886;2023-05-08T04:14:33;93265.47;;;14.07;69.53
59289;BME280;45056;47.602;9.886;2023-05-08T04:17:08;93273.97;;;14.09;69.46
59289;BME280;45056;47.602;9.886;2023-05-08T04:19:45;93269.72;;;14.08;69.55
59289;BME280;45056;47.602;9.886;2023-05-08T04:22:19;93270.75;;;14.10;69.56
59289;BME280;45056;47.602;9.886;2023-05-08T04:24:57;93275.78;;;14.12;69.60
59289;BME280;45056;47.602;9.886;2023-05-08T04:27:30;93276.22;;;14.10;69.36
59289;BME280;45056;47.602;9.886;2023-05-08T04:29:59;93279.13;;;14.07;69.50
59289;BME280;45056;47.602;9.886;2023-05-08T04:32:29;93279.13;;;14.07;69.26
59289;BME280;45056;47.602;9.886;2023-05-08T04:35:00;93279.44;;;14.09;69.35
59289;BME280;45056;47.602;9.886;2023-05-08T04:37:29;93274.72;;;14.09;69.30
59289;BME280;45056;47.602;9.886;2023-05-08T04:40:00;93283.53;;;14.13;69.32
59289;BME280;45056;47.602;9.886;2023-05-08T04:42:29;93285.81;;;14.15;69.14
59289;BME280;45056;47.602;9.886;2023-05-08T04:44:58;93284.31;;;14.14;69.03
59289;BME280;45056;47.602;9.886;2023-05-08T04:47:27;93286.75;;;14.12;69.19
59289;BME280;45056;47.602;9.886;2023-05-08T04:49:55;93282.94;;;14.09;69.33
59289;BME280;45056;47.602;9.886;2023-05-08T04:52:22;93287.34;;;14.07;69.37
59289;BME280;45056;47.602;9.886;2023-05-08T04:54:51;93285.81;;;14.06;69.33
59289;BME280;45056;47.602;9.886;2023-05-08T04:57:20;93288.56;;;14.06;69.57
59289;BME280;45056;47.602;9.886;2023-05-08T04:59:48;93285.50;;;14.04;69.42
59289;BME280;45056;47.602;9.886;2023-05-08T05:02:16;93285.50;;;14.04;69.33
59289;BME280;45056;47.602;9.886;2023-05-08T05:04:45;93292.53;;;14.05;69.14
59289;BME280;45056;47.602;9.886;2023-05-08T05:07:12;93287.50;;;14.03;69.26
59289;BME280;45056;47.602;9.886;2023-05-08T05:09:41;93286.41;;;14.00;69.29
59289;BME280;45056;47.602;9.886;2023-05-08T05:12:09;93288.09;;;13.98;69.21
59289;BME280;45056;47.602;9.886;2023-05-08T05:14:38;93287.31;;;13.97;69.54
59289;BME280;45056;47.602;9.886;2023-05-08T05:17:06;93295.84;;;13.99;69.67
59289;BME280;45056;47.602;9.886;2023-05-08T05:19:35;93294.63;;;14.00;69.46
59289;BME280;45056;47.602;9.886;2023-05-08T05:22:03;93298.88;;;14.02;69.36
59289;BME280;45056;47.602;9.886;2023-05-08T05:24:31;93293.41;;;14.02;69.54
59289;BME280;45056;47.602;9.886;2023-05-08T05:27:01;93302.38;;;14.02;69.31
59289;BME280;45056;47.602;9.886;2023-05-08T05:29:30;93301.59;;;14.02;69.22
59289;BME280;45056;47.602;9.886;2023-05-08T05:32:00;93302.06;;;14.00;69.48
59289;BME280;45056;47.602;9.886;2023-05-08T05:34:35;93305.56;;;14.00;69.69
59289;BME280;45056;47.602;9.886;2023-05-08T05:37:04;93304.81;;;14.00;69.65
59289;BME280;45056;47.602;9.886;2023-05-08T05:39:32;93300.09;;;14.00;69.59
59289;BME280;45056;47.602;9.886;2023-05-08T05:42:01;93306.63;;;14.03;69.66
59289;BME280;45056;47.602;9.886;2023-05-08T05:44:29;93300.25;;;14.06;69.47
59289;BME280;45056;47.602;9.886;2023-05-08T05:46:58;93308.03;;;14.08;69.24
59289;BME280;45056;47.602;9.886;2023-05-08T05:49:26;93298.59;;;14.09;69.18
59289;BME280;45056;47.602;9.886;2023-05-08T05:51:54;93309.53;;;14.09;68.96
59289;BME280;45056;47.602;9.886;2023-05-08T05:54:23;93310.16;;;14.13;69.15
59289;BME280;45056;47.602;9.886;2023-05-08T05:56:51;93305.41;;;14.13;69.25
59289;BME280;45056;47.602;9.886;2023-05-08T05:59:19;93308.94;;;14.14;69.17
59289;BME280;45056;47.602;9.886;2023-05-08T06:01:47;93306.63;;;14.12;69.22
59289;BME280;45056;47.602;9.886;2023-05-08T06:04:16;93307.09;;;14.11;69.31
59289;BME280;45056;47.602;9.886;2023-05-08T06:06:44;93310.16;;;14.13;69.49
59289;BME280;45056;47.602;9.886;2023-05-08T06:09:12;93310.16;;;14.13;69.43
59289;BME280;45056;47.602;9.886;2023-05-08T06:11:41;93302.25;;;14.15;69.36
59289;BME280;45056;47.602;9.886;2023-05-08T06:14:09;93308.31;;;14.19;69.51
59289;BME280;45056;47.602;9.886;2023-05-08T06:16:37;93316.69;;;14.25;69.59
59289;BME280;45056;47.602;9.886;2023-05-08T06:19:06;93313.78;;;14.28;69.58
59289;BME280;45056;47.602;9.886;2023-05-08T06:21:35;93314.09;;;14.31;69.76
59289;BME280;45056;47.602;9.886;2023-05-08T06:24:05;93318.19;;;14.35;69.51
59289;BME280;45056;47.602;9.886;2023-05-08T06:26:33;93315.75;;;14.37;69.53
59289;BME280;45056;47.602;9.886;2023-05-08T06:29:02;93318.81;;;14.39;69.21
59289;BME280;45056;47.602;9.886;2023-05-08T06:31:30;93319.88;;;14.42;69.09
59289;BME280;45056;47.602;9.886;2023-05-08T06:33:58;93313.94;;;14.43;69.31
59289;BME280;45056;47.602;9.886;2023-05-08T06:36:26;93312.25;;;14.46;69.29
59289;BME280;45056;47.602;9.886;2023-05-08T06:38:55;93318.78;;;14.49;68.93
59289;BME280;45056;47.602;9.886;2023-05-08T06:41:23;93311.66;;;14.51;68.69
59289;BME280;45056;47.602;9.886;2023-05-08T06:43:52;93318.66;;;14.52;68.98
59289;BME280;45056;47.602;9.886;2023-05-08T06:46:20;93324.41;;;14.54;68.94
59289;BME280;45056;47.602;9.886;2023-05-08T06:48:48;93320.16;;;14.53;68.83
59289;BME280;45056;47.602;9.886;2023-05-08T06:51:16;93324.13;;;14.52;68.87
59289;BME280;45056;47.602;9.886;2023-05-08T06:53:44;93324.13;;;14.52;68.78
59289;BME280;45056;47.602;9.886;2023-05-08T06:56:13;93322.47;;;14.55;69.10
59289;BME280;45056;47.602;9.886;2023-05-08T06:58:41;93320.47;;;14.55;68.46
59289;BME280;45056;47.602;9.886;2023-05-08T07:01:09;93322.16;;;14.53;68.39
59289;BME280;45056;47.602;9.886;2023-05-08T07:03:37;93320.16;;;14.53;68.32
59289;BME280;45056;47.602;9.886;2023-05-08T07:06:07;93327.47;;;14.56;68.26
59289;BME280;45056;47.602;9.886;2023-05-08T07:08:36;93317.56;;;14.59;68.52
59289;BME280;45056;47.602;9.886;2023-05-08T07:11:04;93322.59;;;14.61;68.33
59289;BME280;45056;47.602;9.886;2023-05-08T07:13:34;93320.63;;;14.61;68.41
59289;BME280;45056;47.602;9.886;2023-05-08T07:16:08;93320.16;;;14.63;68.11
59289;BME280;45056;47.602;9.886;2023-05-08T07:18:36;93319.69;;;14.64;68.19
59289;BME280;45056;47.602;9.886;2023-05-08T07:21:04;93318.03;;;14.67;68.05
59289;BME280;45056;47.602;9.886;2023-05-08T07:23:33;93324.56;;;14.69;68.14
59289;BME280;45056;47.602;9.886;2023-05-08T07:26:01;93329.63;;;14.71;68.35
59289;BME280;45056;47.602;9.886;2023-05-08T07:28:29;93323.22;;;14.74;68.34
59289;BME280;45056;47.602;9.886;2023-05-08T07:30:59;93329.75;;;14.77;68.30
59289;BME280;45056;47.602;9.886;2023-05-08T07:33:31;93334.59;;;14.82;68.15
59289;BME280;45056;47.602;9.886;2023-05-08T07:35:59;93332.47;;;14.86;67.95
59289;BME280;45056;47.602;9.886;2023-05-08T07:38:28;93336.56;;;14.91;68.03
59289;BME280;45056;47.602;9.886;2023-05-08T07:40:56;93326.81;;;14.90;67.53
59289;BME280;45056;47.602;9.886;2023-05-08T07:43:26;93323.63;;;14.91;67.53
59289;BME280;45056;47.602;9.886;2023-05-08T07:45:54;93335.63;;;14.94;67.73
59289;BME280;45056;47.602;9.886;2023-05-08T07:48:24;93330.16;;;14.94;67.41
59289;BME280;45056;47.602;9.886;2023-05-08T07:50:52;93319.19;;;14.94;67.40
59289;BME280;45056;47.602;9.886;2023-05-08T07:53:20;93324.97;;;14.96;67.36
59289;BME280;45056;47.602;9.886;2023-05-08T07:55:48;93329.25;;;14.97;67.15
59289;BME280;45056;47.602;9.886;2023-05-08T07:58:16;93325.91;;;15.02;67.11
59289;BME280;45056;47.602;9.886;2023-05-08T08:00:44;93327.25;;;15.07;67.19
59289;BME280;45056;47.602;9.886;2023-05-08T08:03:12;93329.53;;;15.08;67.29
59289;BME280;45056;47.602;9.886;2023-05-08T08:05:41;93324.34;;;15.10;67.05
59289;BME280;45056;47.602;9.886;2023-05-08T08:08:09;93329.34;;;15.12;66.59
59289;BME280;45056;47.602;9.886;2023-05-08T08:10:37;93334.38;;;15.13;66.83
59289;BME280;45056;47.602;9.886;2023-05-08T08:13:06;93326.31;;;15.10;66.63
59289;BME280;45056;47.602;9.886;2023-05-08T08:15:34;93328.31;;;15.09;66.85
59289;BME280;45056;47.602;9.886;2023-05-08T08:18:02;93331.34;;;15.11;66.91
59289;BME280;45056;47.602;9.886;2023-05-08T08:20:30;93333.16;;;15.14;67.28
59289;BME280;45056;47.602;9.886;2023-05-08T08:22:59;93335.56;;;15.22;67.66
59289;BME280;45056;47.602;9.886;2023-05-08T08:25:40;93331.91;;;15.25;67.13
59289;BME280;45056;47.602;9.886;2023-05-08T08:28:31;93333.41;;;15.26;67.11
59289;BME280;45056;47.602;9.886;2023-05-08T08:31:06;93332.81;;;15.31;67.01
59289;BME280;45056;47.602;9.886;2023-05-08T08:34:14;93334.44;;;15.38;67.35
59289;BME280;45056;47.602;9.886;2023-05-08T08:36:57;93331.84;;;15.43;67.23
59289;BME280;45056;47.602;9.886;2023-05-08T08:39:34;93333.94;;;15.49;66.42
59289;BME280;45056;47.602;9.886;2023-05-08T08:42:21;93334.53;;;15.53;66.15
59289;BME280;45056;47.602;9.886;2023-05-08T08:45:00;93325.66;;;15.58;65.79
59289;BME280;45056;47.602;9.886;2023-05-08T08:47:35;93320.81;;;15.62;65.65
59289;BME280;45056;47.602;9.886;2023-05-08T08:50:36;93328.38;;;15.67;65.82
59289;BME280;45056;47.602;9.886;2023-05-08T08:53:34;93329.72;;;15.72;65.77
59289;BME280;45056;47.602;9.886;2023-05-08T08:59:37;93323.28;;;15.75;65.35
59289;BME280;45056;47.602;9.886;2023-05-08T09:02:30;93339.59;;;15.79;65.41
59289;BME280;45056;47.602;9.886;2023-05-08T09:05:08;93331.06;;;15.77;65.24
59289;BME280;45056;47.602;9.886;2023-05-08T09:07:39;93332.31;;;15.76;65.56
59289;BME280;45056;47.602;9.886;2023-05-08T09:10:22;93332.59;;;15.78;65.43
59289;BME280;45056;47.602;9.886;2023-05-08T09:12:57;93327.41;;;15.80;65.34
59289;BME280;45056;47.602;9.886;2023-05-08T09:15:47;93330.91;;;15.80;65.49
59289;BME280;45056;47.602;9.886;2023-05-08T09:18:18;93341.69;;;15.84;65.64
59289;BME280;45056;47.602;9.886;2023-05-08T09:21:20;93328.28;;;15.86;65.90
59289;BME280;45056;47.602;9.886;2023-05-08T09:24:01;93339.84;;;15.90;65.93
59289;BME280;45056;47.602;9.886;2023-05-08T09:26:39;93335.91;;;15.91;65.78
59289;BME280;45056;47.602;9.886;2023-05-08T09:29:26;93335.28;;;15.87;65.52
59289;BME280;45056;47.602;9.886;2023-05-08T09:31:54;93339.25;;;15.86;65.86
59289;BME280;45056;47.602;9.886;2023-05-08T09:34:30;93334.53;;;15.86;66.13
59289;BME280;45056;47.602;9.886;2023-05-08T09:37:14;93340.00;;;15.86;66.19
59289;BME280;45056;47.602;9.886;2023-05-08T09:40:25;93335.75;;;15.85;66.30
59289;BME280;45056;47.602;9.886;2023-05-08T09:43:31;93335.28;;;15.87;66.43
59289;BME280;45056;47.602;9.886;2023-05-08T09:46:37;93342.91;;;15.92;66.36
59289;BME280;45056;47.602;9.886;2023-05-08T09:49:28;93332.53;;;15.96;66.09
59289;BME280;45056;47.602;9.886;2023-05-08T09:52:47;93341.03;;;15.98;65.76
59289;BME280;45056;47.602;9.886;2023-05-08T10:00:29;93344.13;;;16.15;66.08
59289;BME280;45056;47.602;9.886;2023-05-08T10:06:58;93345.78;;;16.37;65.13
59289;BME280;45056;47.602;9.886;2023-05-08T10:09:26;93331.53;;;16.48;63.71
59289;BME280;45056;47.602;9.886;2023-05-08T10:11:54;93343.19;;;16.58;63.15
59289;BME280;45056;47.602;9.886;2023-05-08T10:14:23;93344.84;;;16.65;63.64
59289;BME280;45056;47.602;9.886;2023-05-08T10:16:53;93343.13;;;16.67;64.13
59289;BME280;45056;47.602;9.886;2023-05-08T10:19:23;93347.88;;;16.67;63.96
59289;BME280;45056;47.602;9.886;2023-05-08T10:21:54;93336.88;;;16.67;64.25
59289;BME280;45056;47.602;9.886;2023-05-08T10:24:27;93349.56;;;16.64;64.26
59289;BME280;45056;47.602;9.886;2023-05-08T10:27:07;93344.44;;;16.57;64.59
59289;BME280;45056;47.602;9.886;2023-05-08T10:29:43;93340.81;;;16.51;64.22
59289;BME280;45056;47.602;9.886;2023-05-08T10:32:20;93339.47;;;16.46;64.43
59289;BME280;45056;47.602;9.886;2023-05-08T10:34:55;93336.94;;;16.42;64.65
59289;BME280;45056;47.602;9.886;2023-05-08T10:37:28;93341.66;;;16.42;64.91
59289;BME280;45056;47.602;9.886;2023-05-08T10:39:57;93337.69;;;16.43;64.67
59289;BME280;45056;47.602;9.886;2023-05-08T10:42:26;93339.19;;;16.44;64.67
59289;BME280;45056;47.602;9.886;2023-05-08T10:44:55;93335.50;;;16.47;64.87
59289;BME280;45056;47.602;9.886;2023-05-08T10:47:31;93337.13;;;16.54;65.02
59289;BME280;45056;47.602;9.886;2023-05-08T10:53:17;93330.16;;;16.68;64.71
59289;BME280;45056;47.602;9.886;2023-05-08T10:55:54;93331.22;;;16.70;64.31
59289;BME280;45056;47.602;9.886;2023-05-08T10:58:30;93334.41;;;16.69;64.58
59289;BME280;45056;47.602;9.886;2023-05-08T11:01:12;93334.25;;;16.72;64.74
59289;BME280;45056;47.602;9.886;2023-05-08T11:03:45;93326.28;;;16.75;64.44
59289;BME280;45056;47.602;9.886;2023-05-08T11:06:40;93327.13;;;16.81;64.39
59289;BME280;45056;47.602;9.886;2023-05-08T11:09:17;93328.75;;;16.87;63.74
59289;BME280;45056;47.602;9.886;2023-05-08T11:11:58;93328.38;;;16.95;63.38
59289;BME280;45056;47.602;9.886;2023-05-08T11:14:54;93328.19;;;16.98;63.32
59289;BME280;45056;47.602;9.886;2023-05-08T11:17:26;93324.69;;;16.98;63.65
59289;BME280;45056;47.602;9.886;2023-05-08T11:19:56;93315.66;;;16.97;63.15
59289;BME280;45056;47.602;9.886;2023-05-08T11:22:29;93324.28;;;16.90;63.04
59289;BME280;45056;47.602;9.886;2023-05-08T11:25:01;93326.19;;;16.84;63.54
59289;BME280;45056;47.602;9.886;2023-05-08T11:27:39;93332.22;;;16.73;63.59
59289;BME280;45056;47.602;9.886;2023-05-08T11:30:34;93328.34;;;16.65;64.02
59289;BME280;45056;47.602;9.886;2023-05-08T11:33:13;93321.22;;;16.58;64.14
59289;BME280;45056;47.602;9.886;2023-05-08T11:35:46;93325.38;;;16.53;64.11
59289;BME280;45056;47.602;9.886;2023-05-08T11:38:23;93317.91;;;16.54;64.09
59289;BME280;45056;47.602;9.886;2023-05-08T11:41:01;93317.13;;;16.53;64.12
59289;BME280;45056;47.602;9.886;2023-05-08T11:46:38;93319.44;;;16.55;64.51
59289;BME280;45056;47.602;9.886;2023-05-08T11:49:12;93316.31;;;16.62;64.36
59289;BME280;45056;47.602;9.886;2023-05-08T11:51:45;93316.41;;;16.68;64.38
59289;BME280;45056;47.602;9.886;2023-05-08T11:54:18;93317.25;;;16.74;64.30
59289;BME280;45056;47.602;9.886;2023-05-08T11:56:47;93318.88;;;16.81;64.17
59289;BME280;45056;47.602;9.886;2023-05-08T11:59:17;93313.78;;;16.88;64.10
59289;BME280;45056;47.602;9.886;2023-05-08T12:01:47;93314.00;;;17.00;63.78
59289;BME280;45056;47.602;9.886;2023-05-08T12:04:16;93315.41;;;17.10;63.59
59289;BME280;45056;47.602;9.886;2023-05-08T12:06:45;93313.81;;;17.19;63.75
59289;BME280;45056;47.602;9.886;2023-05-08T12:09:17;93297.88;;;17.23;63.10
59289;BME280;45056;47.602;9.886;2023-05-08T12:11:45;93308.88;;;17.23;63.03
59289;BME280;45056;47.602;9.886;2023-05-08T12:14:16;93308.09;;;17.22;62.88
59289;BME280;45056;47.602;9.886;2023-05-08T12:16:44;93307.34;;;17.22;62.82
59289;BME280;45056;47.602;9.886;2023-05-08T12:19:12;93303.09;;;17.21;63.05
59289;BME280;45056;47.602;9.886;2023-05-08T12:21:45;93310.28;;;17.18;62.98
59289;BME280;45056;47.602;9.886;2023-05-08T12:24:16;93306.78;;;17.18;63.07
59289;BME280;45056;47.602;9.886;2023-05-08T12:26:48;93306.03;;;17.17;63.17
59289;BME280;45056;47.602;9.886;2023-05-08T12:29:19;93301.28;;;17.18;62.88
59289;BME280;45056;47.602;9.886;2023-05-08T12:31:47;93305.75;;;17.15;62.79
59289;BME280;45056;47.602;9.886;2023-05-08T12:34:16;93305.56;;;17.19;62.78
59289;BME280;45056;47.602;9.886;2023-05-08T12:36:44;93300.13;;;17.24;63.27
59289;BME280;45056;47.602;9.886;2023-05-08T12:39:14;93302.19;;;17.29;63.25
59289;BME280;45056;47.602;9.886;2023-05-08T12:41:48;93309.13;;;17.40;62.83
59289;BME280;45056;47.602;9.886;2023-05-08T12:44:18;93302.34;;;17.56;62.71
59289;BME280;45056;47.602;9.886;2023-05-08T12:46:49;93306.09;;;17.73;62.23
59289;BME280;45056;47.602;9.886;2023-05-08T12:49:28;93301.72;;;17.82;61.34
59289;BME280;45056;47.602;9.886;2023-05-08T12:52:04;93303.22;;;17.83;61.41
59289;BME280;45056;47.602;9.886;2023-05-08T12:54:35;93292.50;;;17.85;61.58
59289;BME280;45056;47.602;9.886;2023-05-08T12:57:13;93303.50;;;17.85;61.11
59289;BME280;45056;47.602;9.886;2023-05-08T12:59:43;93294.19;;;17.82;61.00
59289;BME280;45056;47.602;9.886;2023-05-08T13:02:14;93291.44;;;17.82;61.80
59289;BME280;45056;47.602;9.886;2023-05-08T13:04:44;93286.22;;;17.84;62.13
59289;BME280;45056;47.602;9.886;2023-05-08T13:07:12;93292.41;;;17.79;62.18
59289;BME280;45056;47.602;9.886;2023-05-08T13:09:55;93292.41;;;17.79;62.29
59289;BME280;45056;47.602;9.886;2023-05-08T13:12:26;93292.69;;;17.81;62.12
59289;BME280;45056;47.602;9.886;2023-05-08T13:14:54;93294.19;;;17.82;61.48
59289;BME280;45056;47.602;9.886;2023-05-08T13:17:22;93292.50;;;17.85;61.02
59289;BME280;45056;47.602;9.886;2023-05-08T13:19:50;93288.38;;;17.95;60.78
59289;BME280;45056;47.602;9.886;2023-05-08T13:22:18;93295.84;;;18.10;60.74
59289;BME280;45056;47.602;9.886;2023-05-08T13:24:48;93291.06;;;18.31;59.42
59289;BME280;45056;47.602;9.886;2023-05-08T13:27:16;93292.53;;;18.53;59.79
59289;BME280;45056;47.602;9.886;2023-05-08T13:29:45;93291.00;;;18.72;60.20
59289;BME280;45056;47.602;9.886;2023-05-08T13:32:14;93299.69;;;18.92;59.40
59289;BME280;45056;47.602;9.886;2023-05-08T13:34:42;93288.78;;;19.03;58.56
59289;BME280;45056;47.602;9.886;2023-05-08T13:37:10;93292.63;;;19.11;58.50
59289;BME280;45056;47.602;9.886;2023-05-08T13:39:38;93278.88;;;19.17;59.05
59289;BME280;45056;47.602;9.886;2023-05-08T13:42:06;93281.16;;;19.18;59.14
59289;BME280;45056;47.602;9.886;2023-05-08T13:44:34;93285.91;;;19.18;59.58
59289;BME280;45056;47.602;9.886;2023-05-08T13:47:04;93288.66;;;19.18;58.96
59289;BME280;45056;47.602;9.886;2023-05-08T13:49:31;93290.16;;;19.13;57.47
59289;BME280;45056;47.602;9.886;2023-05-08T13:52:00;93286.31;;;19.05;56.48